createdAt,value
2018-07-07T00:02:59.938Z,99.90
2018-07-07T00:08:03.794Z,99.90
2018-07-07T00:12:59.729Z,99.90
2018-07-07T00:17:55.639Z,99.90
2018-07-07T00:22:50.258Z,99.90
2018-07-07T00:27:45.872Z,99.90
2018-07-07T00:32:40.868Z,99.90
2018-07-07T00:42:30.170Z,99.90
2018-07-07T00:47:25.549Z,99.90
2018-07-07T00:52:20.159Z,99.90
2018-07-07T00:57:15.112Z,99.90
2018-07-07T01:02:16.764Z,99.90
2018-07-07T01:07:11.357Z,99.90
2018-07-07T01:12:05.983Z,99.90
2018-07-07T01:17:00.800Z,99.90
2018-07-07T01:21:57.003Z,99.90
2018-07-07T01:31:46.241Z,99.90
2018-07-07T01:36:41.502Z,99.90
2018-07-07T01:41:35.975Z,99.90
2018-07-07T01:46:30.529Z,99.90
2018-07-07T01:51:26.340Z,99.90
2018-07-07T01:56:20.936Z,99.90
2018-07-07T02:01:16.399Z,99.90
2018-07-07T02:06:11.112Z,99.90
2018-07-07T02:11:05.674Z,99.90
2018-07-07T02:16:00.132Z,99.90
2018-07-07T02:20:54.720Z,99.90
2018-07-07T02:25:49.312Z,99.90
2018-07-07T02:30:43.799Z,99.90
2018-07-07T02:35:38.544Z,99.90
2018-07-07T02:40:33.464Z,99.90
2018-07-07T02:45:28.174Z,99.90
2018-07-07T02:50:22.643Z,99.90
2018-07-07T02:55:23.081Z,99.90
2018-07-07T03:05:12.213Z,99.90
2018-07-07T03:10:20.655Z,99.90
2018-07-07T03:15:22.103Z,99.90
2018-07-07T03:25:14.999Z,99.90
2018-07-07T03:30:11.039Z,99.90
2018-07-07T03:35:05.766Z,99.90
2018-07-07T03:40:00.541Z,99.90
2018-07-07T03:44:55.586Z,99.90
2018-07-07T03:54:45.378Z,99.90
2018-07-07T03:59:40.399Z,99.90
2018-07-07T04:04:35.428Z,99.90
2018-07-07T04:09:30.046Z,99.90
2018-07-07T04:14:24.703Z,99.90
2018-07-07T04:24:13.658Z,98.80
2018-07-07T04:29:08.099Z,99.70
2018-07-07T04:34:02.571Z,99.90
2018-07-07T04:38:57.343Z,99.90
2018-07-07T04:43:51.826Z,99.90
2018-07-07T04:48:46.341Z,99.90
2018-07-07T04:53:41.392Z,99.90
2018-07-07T04:58:36.063Z,99.90
2018-07-07T05:03:30.753Z,99.90
2018-07-07T05:08:25.328Z,99.90
2018-07-07T05:13:19.926Z,99.90
2018-07-07T05:18:15.241Z,99.50
2018-07-07T05:28:04.200Z,96.20
2018-07-07T05:32:58.801Z,92.40
2018-07-07T05:37:53.366Z,90.40
2018-07-07T05:47:42.226Z,89.10
2018-07-07T05:52:36.992Z,87.60
2018-07-07T06:02:26.278Z,80.90
2018-07-07T06:07:21.505Z,76.40
2018-07-07T06:12:16.079Z,73.30
2018-07-07T06:17:10.847Z,70.90
2018-07-07T06:22:05.661Z,64.70
2018-07-07T06:27:00.728Z,56.20
2018-07-07T06:36:52.232Z,53.80
2018-07-07T06:41:47.157Z,54.60
2018-07-07T06:46:42.473Z,53.80
2018-07-07T06:51:37.461Z,51.00
2018-07-07T06:56:32.718Z,45.60
2018-07-07T07:01:27.525Z,42.20
2018-07-07T07:06:23.220Z,40.00
2018-07-07T07:11:18.541Z,36.80
2018-07-07T07:21:08.026Z,28.80
2018-07-07T07:26:02.836Z,26.10
2018-07-07T07:30:57.999Z,24.60
2018-07-07T07:40:47.483Z,21.50
2018-07-07T07:45:42.259Z,20.60
2018-07-07T07:50:37.878Z,19.50
2018-07-07T07:55:32.616Z,18.30
2018-07-07T08:00:27.366Z,18.40
2018-07-07T08:05:22.141Z,17.40
2018-07-07T08:10:17.115Z,18.00
2018-07-07T08:15:11.886Z,16.90
2018-07-07T08:20:06.684Z,15.80
2018-07-07T08:25:01.471Z,14.90
2018-07-07T08:29:56.390Z,13.90
2018-07-07T08:34:51.581Z,14.10
2018-07-07T08:39:46.476Z,13.70
2018-07-07T08:44:41.574Z,13.70
2018-07-07T08:49:36.653Z,14.00
2018-07-07T08:59:25.985Z,15.00
2018-07-07T09:04:20.809Z,15.40
2018-07-07T09:09:15.786Z,14.20
2018-07-07T09:14:10.530Z,14.00
2018-07-07T09:24:00.042Z,13.50
2018-07-07T09:28:55.246Z,12.80
2018-07-07T09:33:50.074Z,12.30
2018-07-07T09:38:52.382Z,12.70
2018-07-07T09:43:47.408Z,13.60
2018-07-07T09:48:53.771Z,14.10
2018-07-07T09:58:43.587Z,14.20
2018-07-07T10:03:39.053Z,16.40
2018-07-07T10:08:34.108Z,19.60
2018-07-07T10:13:29.068Z,22.00
2018-07-07T10:18:24.905Z,23.80
2018-07-07T10:23:19.686Z,25.60
2018-07-07T10:28:15.294Z,26.70
2018-07-07T10:33:10.078Z,28.50
2018-07-07T10:38:05.028Z,30.00
2018-07-07T10:43:00.519Z,31.50
2018-07-07T10:47:55.486Z,32.40
2018-07-07T10:52:50.061Z,32.70
2018-07-07T10:57:45.059Z,33.40
2018-07-07T11:02:39.709Z,31.30
2018-07-07T11:07:34.374Z,31.60
2018-07-07T11:12:29.019Z,31.30
2018-07-07T11:17:24.092Z,31.20
2018-07-07T11:22:18.603Z,30.70
2018-07-07T11:27:13.685Z,29.70
2018-07-07T11:32:08.213Z,31.30
2018-07-07T11:37:02.803Z,31.70
2018-07-07T11:41:57.495Z,32.50
2018-07-07T11:51:46.755Z,32.60
2018-07-07T11:56:41.272Z,33.30
2018-07-07T12:01:35.772Z,33.60
2018-07-07T12:06:30.298Z,33.90
2018-07-07T12:11:24.809Z,33.60
2018-07-07T12:16:19.781Z,35.30
2018-07-07T12:21:14.457Z,33.90
2018-07-07T12:31:03.540Z,33.60
2018-07-07T12:35:58.182Z,34.00
2018-07-07T12:45:48.332Z,34.30
2018-07-07T12:50:43.629Z,33.40
2018-07-07T12:55:38.400Z,33.60
2018-07-07T13:00:33.116Z,34.30
2018-07-07T13:05:27.900Z,34.80
2018-07-07T13:10:22.712Z,34.80
2018-07-07T13:15:17.459Z,35.80
2018-07-07T13:20:11.956Z,35.50
2018-07-07T13:25:06.519Z,35.80
2018-07-07T13:30:01.073Z,36.10
2018-07-07T13:34:55.604Z,36.20
2018-07-07T13:39:50.441Z,35.80
2018-07-07T13:44:45.108Z,35.30
2018-07-07T13:49:40.133Z,35.60
2018-07-07T13:54:34.696Z,35.20
2018-07-07T13:59:29.225Z,34.90
2018-07-07T14:04:25.791Z,34.80
2018-07-07T14:09:20.655Z,34.40
2018-07-07T14:14:15.383Z,34.80
2018-07-07T14:19:10.031Z,34.70
2018-07-07T14:24:04.836Z,35.00
2018-07-07T14:28:59.475Z,34.80
2018-07-07T14:33:53.965Z,35.20
2018-07-07T14:38:48.584Z,35.40
2018-07-07T14:44:03.467Z,35.10
2018-07-07T14:48:59.727Z,35.10
2018-07-07T14:53:54.761Z,35.40
2018-07-07T15:03:44.457Z,36.10
2018-07-07T15:08:38.971Z,36.20
2018-07-07T15:13:35.943Z,36.10
2018-07-07T15:18:31.005Z,36.60
2018-07-07T15:23:26.390Z,36.60
2018-07-07T15:28:21.063Z,36.50
2018-07-07T15:33:15.656Z,37.20
2018-07-07T15:38:10.496Z,36.50
2018-07-07T15:43:04.967Z,36.60
2018-07-07T15:47:59.605Z,36.90
2018-07-07T15:52:54.683Z,37.30
2018-07-07T15:57:49.276Z,37.50
2018-07-07T16:07:38.666Z,38.10
2018-07-07T16:12:33.735Z,38.20
2018-07-07T16:17:28.557Z,38.10
2018-07-07T16:22:23.081Z,37.40
2018-07-07T16:27:17.659Z,37.40
2018-07-07T16:32:12.276Z,37.10
2018-07-07T16:37:06.995Z,37.50
2018-07-07T16:42:01.905Z,37.40
2018-07-07T16:46:57.100Z,37.10
2018-07-07T16:51:51.874Z,37.20
2018-07-07T16:56:46.522Z,37.40
2018-07-07T17:01:41.227Z,37.30
2018-07-07T17:06:36.620Z,38.00
2018-07-07T17:11:31.476Z,38.30
2018-07-07T17:21:21.983Z,39.10
2018-07-07T17:26:22.662Z,40.00
2018-07-07T17:31:18.084Z,40.10
2018-07-07T17:41:08.498Z,40.80
2018-07-07T17:46:03.392Z,41.40
2018-07-07T17:50:58.362Z,41.80
2018-07-07T17:55:53.373Z,41.00
2018-07-07T18:00:48.250Z,41.70
2018-07-07T18:05:42.955Z,41.20
2018-07-07T18:10:37.476Z,42.00
2018-07-07T18:15:32.204Z,42.40
2018-07-07T18:20:26.820Z,42.10
2018-07-07T18:25:21.340Z,42.30
2018-07-07T18:30:15.836Z,42.30
2018-07-07T18:35:10.334Z,42.80
2018-07-07T18:40:04.889Z,43.10
2018-07-07T18:44:59.540Z,43.50
2018-07-07T18:49:54.593Z,43.90
2018-07-07T18:54:50.178Z,44.40
2018-07-07T18:59:45.317Z,44.70
2018-07-07T19:04:39.862Z,45.30
2018-07-07T19:14:29.077Z,46.40
2018-07-07T19:24:23.284Z,47.10
2018-07-07T19:29:17.918Z,47.70
2018-07-07T19:34:17.875Z,48.10
2018-07-07T19:39:12.402Z,48.40
2018-07-07T19:44:07.001Z,49.00
2018-07-07T19:49:01.960Z,49.50
2018-07-07T19:53:56.596Z,50.00
2018-07-07T19:58:51.250Z,50.50
2018-07-07T20:03:45.830Z,51.00
2018-07-07T20:08:42.146Z,51.40
2018-07-07T20:18:46.957Z,52.70
2018-07-07T20:23:41.816Z,53.30
2018-07-07T20:28:41.418Z,53.50
2018-07-07T20:33:35.927Z,53.70
2018-07-07T20:38:30.527Z,54.30
2018-07-07T20:43:24.993Z,55.00
2018-07-07T20:48:18.516Z,55.10
2018-07-07T20:53:13.006Z,55.00
2018-07-07T20:58:08.052Z,55.40
2018-07-07T21:03:02.694Z,55.80
2018-07-07T21:07:57.175Z,56.20
2018-07-07T21:12:51.890Z,56.90
2018-07-07T21:17:46.412Z,57.80
2018-07-07T21:22:41.074Z,58.00
2018-07-07T21:27:35.548Z,59.30
2018-07-07T21:32:31.072Z,59.40
2018-07-07T21:37:25.732Z,59.80
2018-07-07T21:42:20.257Z,61.00
2018-07-07T21:47:15.261Z,61.90
2018-07-07T21:52:10.667Z,62.80
2018-07-07T21:57:05.348Z,63.30
2018-07-07T22:07:07.201Z,64.10
2018-07-07T22:12:02.212Z,66.30
2018-07-07T22:16:57.027Z,66.60
2018-07-07T22:22:03.704Z,66.90
2018-07-07T22:27:00.810Z,68.00
2018-07-07T22:31:56.661Z,68.70
2018-07-07T22:36:51.691Z,69.50
2018-07-07T22:41:58.324Z,70.10
2018-07-07T22:46:53.558Z,71.20
2018-07-07T22:51:48.169Z,71.60
2018-07-07T22:56:43.452Z,71.60
2018-07-07T23:01:38.266Z,72.40
2018-07-07T23:06:33.214Z,73.00
2018-07-07T23:11:28.174Z,74.10
2018-07-07T23:16:23.000Z,75.30
2018-07-07T23:21:18.098Z,76.00
2018-07-07T23:26:15.247Z,77.20
2018-07-07T23:31:10.311Z,78.30
2018-07-07T23:36:06.040Z,78.90
2018-07-07T23:45:57.613Z,82.50
2018-07-07T23:50:52.332Z,83.30
2018-07-07T23:55:48.314Z,85.00
